Time;durP1;ratioP1;P1;durP2;ratioP2;P2;SDS_P1;SDS_P2;PMS_P1;PMS_P2;Temp;Humidity;BMP_temperature;BMP_pressure;BME280_temperature;BME280_humidity;BME280_pressure;Samples;Min_cycle;Max_cycle;Signal;HPM_P1;HPM_P2
2023/07/17 00:00:42;;;;;;;0.50;0.50;;;22.40;64.30;;;;;;5030961;28;20545;-77
2023/07/17 00:03:08;;;;;;;0.95;0.40;;;22.40;64.40;;;;;;5037830;28;20041;-77
2023/07/17 00:05:34;;;;;;;0.40;0.40;;;22.40;64.20;;;;;;5031984;28;20072;-77
2023/07/17 00:07:59;;;;;;;0.40;0.40;;;22.40;64.80;;;;;;5034677;28;20046;-77
2023/07/17 00:10:25;;;;;;;0.40;0.40;;;22.40;65.30;;;;;;5034283;28;20049;-77
2023/07/17 00:12:51;;;;;;;0.40;0.40;;;22.40;64.50;;;;;;5032610;28;20080;-77
2023/07/17 00:15:16;;;;;;;0.30;0.30;;;22.40;64.50;;;;;;5035834;28;20049;-77
2023/07/17 00:17:42;;;;;;;0.60;0.60;;;22.40;64.50;;;;;;5034012;28;20041;-77
2023/07/17 00:20:11;;;;;;;0.32;0.32;;;22.40;64.40;;;;;;5038441;28;20403;-77
2023/07/17 00:22:36;;;;;;;0.40;0.40;;;22.40;64.40;;;;;;5041711;28;20045;-77
2023/07/17 00:25:04;;;;;;;0.30;0.30;;;22.40;64.50;;;;;;5037875;28;20086;-77
2023/07/17 00:27:29;;;;;;;0.40;0.40;;;22.40;64.50;;;;;;5033472;28;20103;-77
2023/07/17 00:29:55;;;;;;;1.73;0.40;;;22.40;64.50;;;;;;5036680;28;20414;-77
2023/07/17 00:32:21;;;;;;;0.45;0.45;;;22.40;64.40;;;;;;5037548;28;20592;-77
2023/07/17 00:34:46;;;;;;;0.52;0.30;;;22.40;64.40;;;;;;5038880;28;20043;-77
2023/07/17 00:37:12;;;;;;;0.40;0.40;;;22.40;64.30;;;;;;5037958;28;20040;-77
2023/07/17 00:39:38;;;;;;;0.43;0.32;;;22.40;64.40;;;;;;5034888;28;20056;-77
2023/07/17 00:42:04;;;;;;;0.45;0.45;;;22.40;64.40;;;;;;5036272;28;20044;-77
2023/07/17 00:44:29;;;;;;;0.47;0.47;;;22.40;64.40;;;;;;5033777;28;20046;-77
2023/07/17 00:46:55;;;;;;;0.50;0.50;;;22.40;64.60;;;;;;5054521;28;20033;-77
2023/07/17 00:49:22;;;;;;;0.50;0.50;;;22.40;64.50;;;;;;5055703;28;20073;-77
2023/07/17 00:51:47;;;;;;;0.45;0.45;;;22.40;64.40;;;;;;5018194;28;20049;-77
2023/07/17 00:54:14;;;;;;;0.40;0.40;;;22.30;64.30;;;;;;5050880;28;20049;-77
2023/07/17 00:56:40;;;;;;;0.32;0.32;;;22.30;64.30;;;;;;5047330;28;20730;-77
2023/07/17 00:59:05;;;;;;;0.40;0.40;;;22.30;64.30;;;;;;5071869;28;20267;-77
2023/07/17 01:01:31;;;;;;;0.40;0.40;;;22.40;64.40;;;;;;5057087;28;20456;-77
2023/07/17 01:03:57;;;;;;;0.50;0.50;;;22.30;64.30;;;;;;5049741;28;20041;-77
2023/07/17 01:06:26;;;;;;;0.40;0.40;;;22.40;64.40;;;;;;5035401;28;20037;-77
2023/07/17 01:08:51;;;;;;;0.50;0.50;;;22.30;64.40;;;;;;5034888;28;20056;-76
2023/07/17 01:11:17;;;;;;;0.32;0.32;;;22.30;64.30;;;;;;5038029;28;20530;-76
2023/07/17 01:13:46;;;;;;;0.28;0.28;;;22.30;65.20;;;;;;5038303;28;20562;-76
2023/07/17 01:16:12;;;;;;;0.40;0.40;;;22.30;64.40;;;;;;5036988;28;20410;-76
2023/07/17 01:18:38;;;;;;;0.45;0.45;;;22.30;64.40;;;;;;5034140;28;20522;-76
2023/07/17 01:21:05;;;;;;;0.40;0.40;;;22.30;64.40;;;;;;5036182;28;20045;-76
2023/07/17 01:23:31;;;;;;;0.50;0.50;;;22.30;64.40;;;;;;5035669;28;20049;-76
2023/07/17 01:25:57;;;;;;;0.60;0.50;;;22.30;64.50;;;;;;5034924;28;20061;-76
2023/07/17 01:28:22;;;;;;;0.32;0.30;;;22.30;64.40;;;;;;5038635;28;20048;-77
2023/07/17 01:30:48;;;;;;;0.40;0.40;;;22.30;64.40;;;;;;5033621;28;20135;-77
2023/07/17 01:33:14;;;;;;;0.30;0.30;;;22.30;64.40;;;;;;5036757;28;20079;-77
2023/07/17 01:35:39;;;;;;;0.43;0.43;;;22.30;64.40;;;;;;5037110;28;20049;-76
2023/07/17 01:38:05;;;;;;;0.52;0.38;;;22.30;64.90;;;;;;5035358;28;20061;-76
2023/07/17 01:40:30;;;;;;;0.40;0.35;;;22.30;64.40;;;;;;5040769;28;20530;-76
2023/07/17 01:42:56;;;;;;;0.55;0.40;;;22.30;64.40;;;;;;5035415;28;20506;-76
2023/07/17 01:45:22;;;;;;;0.40;0.40;;;22.30;64.40;;;;;;5035203;28;20041;-76
2023/07/17 01:47:47;;;;;;;0.32;0.32;;;22.30;64.40;;;;;;5032400;28;20057;-76
2023/07/17 01:50:13;;;;;;;0.38;0.38;;;22.30;64.50;;;;;;5035972;28;20034;-76
2023/07/17 01:52:38;;;;;;;0.32;0.32;;;22.30;64.50;;;;;;5036253;28;20073;-76
2023/07/17 01:55:04;;;;;;;0.30;0.30;;;22.30;64.40;;;;;;5033530;28;20037;-76
2023/07/17 01:57:30;;;;;;;0.30;0.30;;;22.30;64.50;;;;;;5033976;28;20176;-76
2023/07/17 01:59:55;;;;;;;0.30;0.30;;;22.20;64.40;;;;;;5033137;28;20124;-76
2023/07/17 02:02:21;;;;;;;0.30;0.30;;;22.30;64.50;;;;;;5034506;28;20056;-76
2023/07/17 02:04:47;;;;;;;0.22;0.20;;;22.30;64.50;;;;;;5037391;28;20045;-76
2023/07/17 02:07:12;;;;;;;0.40;0.40;;;22.30;64.50;;;;;;5033552;28;20060;-76
2023/07/17 02:09:38;;;;;;;0.30;0.30;;;22.20;64.40;;;;;;5034445;28;20124;-76
2023/07/17 02:12:04;;;;;;;0.40;0.38;;;22.30;64.40;;;;;;5020958;28;20053;-76
2023/07/17 02:14:30;;;;;;;0.50;0.50;;;22.30;64.40;;;;;;5026445;28;20090;-76
2023/07/17 02:16:55;;;;;;;0.22;0.22;;;22.20;64.40;;;;;;5043994;28;20049;-77
2023/07/17 02:19:21;;;;;;;0.20;0.20;;;22.30;64.50;;;;;;5057214;28;20032;-77
2023/07/17 02:21:46;;;;;;;0.32;0.32;;;22.30;64.60;;;;;;5051560;28;20041;-77
2023/07/17 02:24:12;;;;;;;0.28;0.28;;;22.30;64.50;;;;;;5057185;28;20128;-77
2023/07/17 02:26:37;;;;;;;0.20;0.20;;;22.30;64.60;;;;;;5053006;28;20053;-77
2023/07/17 02:29:03;;;;;;;0.40;0.20;;;22.30;64.50;;;;;;5056119;28;20041;-77
2023/07/17 02:31:29;;;;;;;0.40;0.40;;;22.30;64.50;;;;;;5056494;28;20068;-77
2023/07/17 02:33:55;;;;;;;0.20;0.20;;;22.30;64.50;;;;;;5053531;28;20121;-77
2023/07/17 02:36:21;;;;;;;0.30;0.30;;;22.30;64.50;;;;;;5050192;28;20110;-77
2023/07/17 02:38:46;;;;;;;0.20;0.20;;;22.20;64.40;;;;;;5053499;28;20040;-77
2023/07/17 02:41:13;;;;;;;0.43;0.40;;;22.20;64.40;;;;;;5056253;28;20508;-77
2023/07/17 02:43:39;;;;;;;0.30;0.30;;;22.20;64.40;;;;;;5054632;28;20041;-77
2023/07/17 02:46:04;;;;;;;0.20;0.20;;;22.20;64.50;;;;;;5052500;28;20442;-77
2023/07/17 02:48:30;;;;;;;0.30;0.30;;;22.30;64.50;;;;;;5020405;28;20127;-77
2023/07/17 02:50:56;;;;;;;0.32;0.32;;;22.20;64.50;;;;;;5051622;28;20045;-77
2023/07/17 02:53:21;;;;;;;0.30;0.30;;;22.20;64.60;;;;;;5052482;28;20083;-77
2023/07/17 02:55:47;;;;;;;0.20;0.20;;;22.20;64.50;;;;;;5054921;28;20040;-77
2023/07/17 02:58:15;;;;;;;0.30;0.30;;;22.20;64.40;;;;;;5053380;28;20044;-77
2023/07/17 03:00:41;;;;;;;0.30;0.30;;;22.20;64.40;;;;;;5052683;28;20037;-77
2023/07/17 03:03:09;;;;;;;0.57;0.50;;;22.20;64.50;;;;;;5055482;28;20052;-77
2023/07/17 03:05:35;;;;;;;0.20;0.20;;;22.20;64.40;;;;;;5055713;28;20036;-76
2023/07/17 03:08:00;;;;;;;0.43;0.43;;;22.20;64.50;;;;;;5053994;28;20598;-76
2023/07/17 03:10:27;;;;;;;0.40;0.40;;;22.20;64.50;;;;;;5058319;28;20037;-76
2023/07/17 03:12:52;;;;;;;0.30;0.30;;;22.20;64.50;;;;;;5050295;28;20045;-76
2023/07/17 03:15:18;;;;;;;0.47;0.30;;;22.20;64.50;;;;;;5049546;28;20040;-76
2023/07/17 03:17:43;;;;;;;0.30;0.30;;;22.20;64.60;;;;;;5054319;28;20461;-76
2023/07/17 03:20:10;;;;;;;0.20;0.20;;;22.20;64.50;;;;;;5055915;28;20503;-76
2023/07/17 03:22:36;;;;;;;0.30;0.30;;;22.20;64.50;;;;;;5055087;28;20045;-76
2023/07/17 03:25:03;;;;;;;0.30;0.28;;;22.20;64.50;;;;;;5058952;28;20375;-77
2023/07/17 03:27:29;;;;;;;0.20;0.20;;;22.20;64.50;;;;;;5052941;28;20259;-77
2023/07/17 03:29:54;;;;;;;0.30;0.30;;;22.20;64.50;;;;;;5051593;28;20529;-76
2023/07/17 03:32:20;;;;;;;0.30;0.30;;;22.20;64.50;;;;;;5052846;28;20028;-76
2023/07/17 03:34:45;;;;;;;0.15;0.15;;;22.20;64.50;;;;;;5037226;28;20040;-76
2023/07/17 03:37:11;;;;;;;0.30;0.30;;;22.10;64.50;;;;;;5034964;28;20482;-76
2023/07/17 03:39:37;;;;;;;0.52;0.30;;;22.20;64.60;;;;;;5033184;28;20403;-77
2023/07/17 03:42:04;;;;;;;0.32;0.32;;;22.20;64.60;;;;;;5031259;28;20065;-77
2023/07/17 03:44:30;;;;;;;0.30;0.30;;;22.20;64.60;;;;;;5049640;28;20045;-77
2023/07/17 03:46:55;;;;;;;0.30;0.30;;;22.10;64.50;;;;;;5034410;28;21066;-77
2023/07/17 03:49:21;;;;;;;0.63;0.50;;;22.20;64.60;;;;;;5021144;28;20037;-77
2023/07/17 03:51:46;;;;;;;0.40;0.35;;;22.20;64.50;;;;;;5032041;28;20419;-76
2023/07/17 03:54:12;;;;;;;0.35;0.35;;;22.20;65.40;;;;;;5032422;28;20095;-76
2023/07/17 03:56:40;;;;;;;0.40;0.30;;;22.20;64.60;;;;;;5033735;28;20056;-76
2023/07/17 03:59:05;;;;;;;0.30;0.30;;;22.10;64.60;;;;;;5037173;28;20101;-77
2023/07/17 04:01:31;;;;;;;0.20;0.20;;;22.20;64.60;;;;;;5040207;28;20534;-77
2023/07/17 04:03:57;;;;;;;0.65;0.40;;;22.20;64.70;;;;;;5035246;28;20422;-77
2023/07/17 04:06:23;;;;;;;0.30;0.30;;;22.10;64.70;;;;;;5033170;28;20499;-77
2023/07/17 04:08:48;;;;;;;0.40;0.40;;;22.10;64.70;;;;;;5038203;28;20048;-77
2023/07/17 04:11:14;;;;;;;0.20;0.20;;;22.10;64.70;;;;;;5038038;28;20045;-77
2023/07/17 04:13:41;;;;;;;0.47;0.30;;;22.10;64.70;;;;;;5040310;28;20342;-76
2023/07/17 04:16:07;;;;;;;0.40;0.40;;;22.10;64.70;;;;;;5033339;28;20095;-76
2023/07/17 04:18:32;;;;;;;0.20;0.20;;;22.10;64.70;;;;;;5028664;28;20029;-76
2023/07/17 04:20:58;;;;;;;0.30;0.30;;;22.10;64.70;;;;;;5036820;28;20052;-76
2023/07/17 04:23:23;;;;;;;0.50;0.50;;;22.10;64.80;;;;;;5035398;28;20111;-76
2023/07/17 04:25:50;;;;;;;0.50;0.38;;;22.10;64.70;;;;;;5037797;28;20499;-77
2023/07/17 04:28:16;;;;;;;0.30;0.30;;;22.10;64.70;;;;;;5021024;28;20076;-76
2023/07/17 04:30:41;;;;;;;0.25;0.25;;;22.10;64.70;;;;;;5033413;28;20048;-76
2023/07/17 04:33:07;;;;;;;0.35;0.30;;;22.10;64.80;;;;;;5037062;28;20044;-76
2023/07/17 04:35:37;;;;;;;0.30;0.30;;;22.10;64.80;;;;;;5034562;28;20109;-76
2023/07/17 04:38:03;;;;;;;0.35;0.32;;;22.10;64.70;;;;;;5035701;28;20411;-76
2023/07/17 04:40:29;;;;;;;0.30;0.30;;;22.10;64.80;;;;;;5042689;28;21121;-76
2023/07/17 04:42:55;;;;;;;0.25;0.25;;;22.10;64.70;;;;;;5034783;28;20044;-77
2023/07/17 04:45:20;;;;;;;0.40;0.40;;;22.10;64.70;;;;;;5032647;28;20045;-77
2023/07/17 04:47:46;;;;;;;0.30;0.30;;;22.10;64.80;;;;;;5037455;28;20132;-77
2023/07/17 04:50:11;;;;;;;0.30;0.30;;;22.10;64.80;;;;;;5035615;28;20612;-77
2023/07/17 04:52:37;;;;;;;0.47;0.47;;;22.10;64.80;;;;;;5043055;28;20046;-77
2023/07/17 04:55:03;;;;;;;0.43;0.43;;;22.10;64.70;;;;;;5036899;28;20041;-76
2023/07/17 04:57:28;;;;;;;0.20;0.20;;;22.10;64.70;;;;;;5036781;28;20040;-76
2023/07/17 04:59:54;;;;;;;0.70;0.40;;;22.10;64.70;;;;;;5033092;28;20482;-76
2023/07/17 05:02:20;;;;;;;0.60;0.40;;;22.10;64.70;;;;;;5035347;28;20114;-76
2023/07/17 05:04:45;;;;;;;0.47;0.30;;;22.10;64.70;;;;;;5041116;28;20110;-76
2023/07/17 05:07:11;;;;;;;0.25;0.25;;;22.10;64.70;;;;;;5053056;28;20048;-76
2023/07/17 05:09:36;;;;;;;0.20;0.20;;;22.10;64.70;;;;;;5033509;28;20128;-76
2023/07/17 05:12:02;;;;;;;0.40;0.40;;;22.10;65.50;;;;;;5032530;28;20054;-76
2023/07/17 05:14:28;;;;;;;0.38;0.38;;;22.10;64.80;;;;;;5035384;28;20050;-76
2023/07/17 05:16:53;;;;;;;0.30;0.30;;;22.10;64.70;;;;;;5036392;28;20053;-76
2023/07/17 05:19:19;;;;;;;0.55;0.55;;;22.10;64.70;;;;;;5039837;28;20054;-76
2023/07/17 05:21:45;;;;;;;0.40;0.40;;;22.00;64.70;;;;;;5031949;28;20581;-76
2023/07/17 05:24:10;;;;;;;0.45;0.40;;;22.10;64.70;;;;;;5035826;28;20454;-77
2023/07/17 05:26:36;;;;;;;0.43;0.43;;;22.10;64.70;;;;;;5034959;28;20049;-76
2023/07/17 05:29:02;;;;;;;0.50;0.30;;;22.10;64.80;;;;;;5035201;28;20053;-76
2023/07/17 05:31:27;;;;;;;0.38;0.30;;;22.10;64.70;;;;;;5041885;28;20124;-77
2023/07/17 05:33:53;;;;;;;0.38;0.38;;;22.10;64.60;;;;;;5033680;28;20140;-76
2023/07/17 05:36:19;;;;;;;0.40;0.40;;;22.10;64.70;;;;;;5034376;28;20041;-76
2023/07/17 05:38:44;;;;;;;0.30;0.30;;;22.00;64.60;;;;;;5031490;28;20091;-76
2023/07/17 05:41:10;;;;;;;0.30;0.30;;;22.10;64.60;;;;;;5035922;28;20525;-76
2023/07/17 05:43:35;;;;;;;0.30;0.30;;;22.10;64.70;;;;;;5041789;28;20100;-76
2023/07/17 05:46:01;;;;;;;0.30;0.30;;;22.00;64.70;;;;;;5035072;28;20073;-76
2023/07/17 05:48:27;;;;;;;0.35;0.35;;;22.00;64.70;;;;;;5035907;28;20535;-76
2023/07/17 05:50:52;;;;;;;0.35;0.30;;;22.00;64.70;;;;;;5034943;28;20520;-76
2023/07/17 05:53:18;;;;;;;0.32;0.32;;;22.00;64.80;;;;;;5036354;28;20129;-76
2023/07/17 05:55:44;;;;;;;0.40;0.40;;;22.00;64.60;;;;;;5040544;28;20036;-76
2023/07/17 05:58:09;;;;;;;0.30;0.28;;;22.00;64.60;;;;;;5037126;28;20064;-76
2023/07/17 06:00:35;;;;;;;0.25;0.25;;;22.00;64.70;;;;;;5035308;28;20083;-77
2023/07/17 06:03:00;;;;;;;0.40;0.40;;;22.00;64.60;;;;;;5029121;28;20038;-77
2023/07/17 06:05:26;;;;;;;0.28;0.25;;;22.00;64.70;;;;;;5036125;28;20503;-77
2023/07/17 06:07:52;;;;;;;0.30;0.30;;;22.00;64.60;;;;;;5035528;28;20040;-76
2023/07/17 06:10:17;;;;;;;0.40;0.40;;;22.00;64.70;;;;;;5039742;28;20099;-76
2023/07/17 06:12:43;;;;;;;0.47;0.47;;;22.00;64.60;;;;;;5033572;28;20037;-76
2023/07/17 06:15:18;;;;;;;0.40;0.40;;;22.00;64.70;;;;;;5031856;28;20048;-76
2023/07/17 06:17:43;;;;;;;0.30;0.30;;;22.00;64.70;;;;;;5031825;28;20034;-76
2023/07/17 06:20:09;;;;;;;0.40;0.40;;;22.10;64.60;;;;;;5036917;28;20087;-77
2023/07/17 06:22:35;;;;;;;0.30;0.30;;;22.10;64.50;;;;;;5034615;28;20530;-77
2023/07/17 06:25:01;;;;;;;0.30;0.30;;;22.10;64.50;;;;;;5035460;28;20044;-76
2023/07/17 06:27:27;;;;;;;0.43;0.43;;;22.10;64.60;;;;;;5028145;28;20037;-76
2023/07/17 06:29:52;;;;;;;0.22;0.22;;;22.00;65.50;;;;;;5034107;28;20115;-76
2023/07/17 06:32:18;;;;;;;0.40;0.40;;;22.00;64.70;;;;;;5036299;28;20049;-76
2023/07/17 06:34:43;;;;;;;0.50;0.50;;;22.10;64.50;;;;;;5040706;28;20522;-76
2023/07/17 06:37:09;;;;;;;0.50;0.40;;;22.00;64.60;;;;;;5032411;28;20063;-76
2023/07/17 06:39:35;;;;;;;0.30;0.30;;;22.00;65.30;;;;;;5029775;28;20036;-76
2023/07/17 06:42:00;;;;;;;0.40;0.40;;;22.10;64.60;;;;;;5032409;28;20040;-76
2023/07/17 06:44:26;;;;;;;0.40;0.40;;;22.00;64.60;;;;;;5033195;28;20503;-76
2023/07/17 06:46:51;;;;;;;0.30;0.30;;;22.00;64.60;;;;;;5035323;28;20415;-76
2023/07/17 06:49:17;;;;;;;0.47;0.47;;;22.00;64.40;;;;;;5033246;28;20133;-76
2023/07/17 06:51:42;;;;;;;0.32;0.32;;;22.00;64.60;;;;;;5032956;28;20087;-76
2023/07/17 06:54:08;;;;;;;0.47;0.47;;;22.00;64.40;;;;;;5035877;28;20054;-76
2023/07/17 06:56:33;;;;;;;0.60;0.60;;;22.00;64.60;;;;;;5034792;28;20029;-76
2023/07/17 06:59:00;;;;;;;0.50;0.43;;;22.10;64.50;;;;;;5035754;28;20615;-76
2023/07/17 07:01:25;;;;;;;0.40;0.40;;;22.10;64.50;;;;;;5038656;28;20052;-76
2023/07/17 07:03:51;;;;;;;0.40;0.40;;;22.00;64.50;;;;;;5034584;28;20045;-76
2023/07/17 07:06:16;;;;;;;0.50;0.30;;;22.00;64.50;;;;;;5034573;28;20099;-76
2023/07/17 07:08:42;;;;;;;0.30;0.30;;;22.10;64.50;;;;;;5033815;28;20082;-76
2023/07/17 07:11:08;;;;;;;0.50;0.32;;;22.00;64.40;;;;;;5032716;28;20058;-76
2023/07/17 07:13:34;;;;;;;0.30;0.30;;;22.10;64.50;;;;;;5037037;28;20041;-76
2023/07/17 07:15:59;;;;;;;0.40;0.40;;;22.10;64.40;;;;;;5031866;28;20052;-76
2023/07/17 07:18:25;;;;;;;0.45;0.45;;;22.10;65.30;;;;;;5031242;28;20506;-76
2023/07/17 07:20:51;;;;;;;0.52;0.52;;;22.10;64.50;;;;;;5037563;28;20052;-76
2023/07/17 07:23:17;;;;;;;0.55;0.30;;;22.10;64.40;;;;;;5034002;28;20092;-76
2023/07/17 07:25:43;;;;;;;0.40;0.40;;;22.10;64.40;;;;;;5034171;28;20044;-76
2023/07/17 07:28:10;;;;;;;0.60;0.60;;;22.10;64.40;;;;;;5032553;28;20080;-76
2023/07/17 07:30:35;;;;;;;1.38;0.60;;;22.10;64.40;;;;;;5017151;28;20037;-76
2023/07/17 07:33:01;;;;;;;0.30;0.30;;;22.10;64.20;;;;;;5030194;28;20091;-76
2023/07/17 07:35:26;;;;;;;0.50;0.32;;;22.10;64.30;;;;;;5032962;28;20038;-77
2023/07/17 07:37:52;;;;;;;0.40;0.40;;;22.10;64.30;;;;;;5037219;28;20053;-76
2023/07/17 07:40:17;;;;;;;0.57;0.57;;;22.10;64.20;;;;;;5035805;28;20033;-76
2023/07/17 07:42:43;;;;;;;0.40;0.40;;;22.10;64.20;;;;;;5030107;28;20048;-76
2023/07/17 07:45:12;;;;;;;0.40;0.40;;;22.10;64.00;;;;;;5032726;28;22534;-76
2023/07/17 07:47:41;;;;;;;0.40;0.40;;;22.10;64.00;;;;;;5033889;28;20045;-76
2023/07/17 07:50:07;;;;;;;0.38;0.38;;;22.10;63.90;;;;;;5032943;28;20195;-76
2023/07/17 07:52:32;;;;;;;0.47;0.47;;;22.10;63.90;;;;;;5036292;28;20045;-76
2023/07/17 07:54:58;;;;;;;0.20;0.20;;;22.10;63.90;;;;;;5032996;28;20119;-76
2023/07/17 07:57:23;;;;;;;0.40;0.30;;;22.10;63.80;;;;;;5031003;28;20540;-76
2023/07/17 07:59:49;;;;;;;0.40;0.40;;;22.10;63.80;;;;;;5027797;28;20538;-76
2023/07/17 08:02:15;;;;;;;0.30;0.30;;;22.20;63.80;;;;;;5034475;28;20049;-76
2023/07/17 08:04:40;;;;;;;0.43;0.43;;;22.10;63.70;;;;;;5036762;28;20099;-76
2023/07/17 08:07:07;;;;;;;0.38;0.35;;;22.20;63.80;;;;;;5033891;28;20107;-76
2023/07/17 08:09:32;;;;;;;0.30;0.30;;;22.20;63.70;;;;;;5033585;28;20041;-76
2023/07/17 08:11:58;;;;;;;0.28;0.28;;;22.20;63.70;;;;;;5031442;28;20053;-76
2023/07/17 08:14:23;;;;;;;0.50;0.30;;;22.20;63.70;;;;;;5031780;28;20042;-76
2023/07/17 08:16:49;;;;;;;0.30;0.30;;;22.20;63.60;;;;;;5036708;28;20096;-76
2023/07/17 08:19:16;;;;;;;0.45;0.30;;;22.20;63.60;;;;;;5034120;28;20049;-76
2023/07/17 08:21:42;;;;;;;0.40;0.40;;;22.30;63.70;;;;;;5026912;28;20045;-76
2023/07/17 08:24:08;;;;;;;0.40;0.40;;;22.20;63.60;;;;;;5032842;28;20049;-76
2023/07/17 08:26:33;;;;;;;0.30;0.30;;;22.20;63.60;;;;;;5034856;28;20495;-76
2023/07/17 08:29:00;;;;;;;0.57;0.55;;;22.30;63.80;;;;;;5035809;28;20072;-76
2023/07/17 08:31:26;;;;;;;0.30;0.30;;;22.30;63.70;;;;;;5035761;28;20036;-77
2023/07/17 08:33:52;;;;;;;0.40;0.40;;;22.30;63.60;;;;;;5032568;28;20049;-76
2023/07/17 08:36:18;;;;;;;0.40;0.40;;;22.30;63.70;;;;;;5029571;28;20037;-76
2023/07/17 08:38:43;;;;;;;0.40;0.40;;;22.30;63.90;;;;;;5030319;28;20049;-76
2023/07/17 08:41:09;;;;;;;0.40;0.40;;;22.30;63.90;;;;;;5037563;28;20041;-76
2023/07/17 08:43:36;;;;;;;0.40;0.40;;;22.30;63.80;;;;;;5050844;28;20042;-76
2023/07/17 08:46:01;;;;;;;0.45;0.45;;;22.40;63.70;;;;;;5035998;28;20483;-76
2023/07/17 08:48:27;;;;;;;0.55;0.55;;;22.40;63.70;;;;;;5033725;28;20087;-76
2023/07/17 08:50:52;;;;;;;0.40;0.40;;;22.40;63.80;;;;;;5031991;28;20126;-76
2023/07/17 08:53:18;;;;;;;0.45;0.45;;;22.40;64.00;;;;;;5031944;28;20507;-76
2023/07/17 08:55:43;;;;;;;0.40;0.40;;;22.40;64.00;;;;;;5034916;28;20041;-76
2023/07/17 08:58:09;;;;;;;0.40;0.30;;;22.40;64.00;;;;;;5036989;28;20041;-76
2023/07/17 09:00:35;;;;;;;0.50;0.50;;;22.40;64.00;;;;;;5038196;28;20743;-76
2023/07/17 09:03:00;;;;;;;0.30;0.30;;;22.40;63.80;;;;;;5034913;28;20123;-76
2023/07/17 09:05:26;;;;;;;1.17;0.68;;;22.40;63.40;;;;;;5037748;28;20063;-76
2023/07/17 09:07:51;;;;;;;0.40;0.40;;;22.40;63.70;;;;;;5039821;28;20128;-76
2023/07/17 09:10:21;;;;;;;0.82;0.55;;;22.50;63.80;;;;;;5038091;28;20044;-76
2023/07/17 09:12:57;;;;;;;0.50;0.50;;;22.50;63.50;;;;;;5039672;28;20045;-76
2023/07/17 09:15:23;;;;;;;0.50;0.50;;;22.50;63.60;;;;;;5043182;28;20162;-76
2023/07/17 09:17:49;;;;;;;0.50;0.50;;;22.50;63.60;;;;;;5032813;28;20048;-76
2023/07/17 09:20:16;;;;;;;0.38;0.38;;;22.50;63.60;;;;;;5038460;28;20042;-76
2023/07/17 09:22:41;;;;;;;0.43;0.43;;;22.50;63.60;;;;;;5037951;28;20068;-76
2023/07/17 09:25:08;;;;;;;0.50;0.50;;;22.50;64.00;;;;;;5037512;28;20462;-76
2023/07/17 09:27:45;;;;;;;0.40;0.40;;;22.50;63.70;;;;;;5035396;28;20049;-76
2023/07/17 09:30:12;;;;;;;0.47;0.47;;;22.50;63.80;;;;;;5035948;28;20502;-76
2023/07/17 09:32:38;;;;;;;0.40;0.40;;;22.50;63.70;;;;;;5035607;28;20045;-76
2023/07/17 09:35:04;;;;;;;0.30;0.30;;;22.50;64.00;;;;;;5038373;28;20029;-76
2023/07/17 09:37:31;;;;;;;0.40;0.40;;;22.50;63.50;;;;;;5056017;28;20036;-76
2023/07/17 09:39:58;;;;;;;0.40;0.40;;;22.50;63.70;;;;;;5034788;28;20041;-76
2023/07/17 09:42:23;;;;;;;0.50;0.50;;;22.50;63.70;;;;;;5049070;28;20036;-76
2023/07/17 09:44:50;;;;;;;0.30;0.30;;;22.50;63.70;;;;;;5040410;28;20403;-76
2023/07/17 09:47:16;;;;;;;0.50;0.40;;;22.50;63.60;;;;;;5057244;28;20115;-76
2023/07/17 09:49:42;;;;;;;0.80;0.50;;;22.50;63.70;;;;;;5050780;28;20037;-76
2023/07/17 09:52:07;;;;;;;0.40;0.40;;;22.50;63.60;;;;;;5047114;28;20033;-76
2023/07/17 09:54:33;;;;;;;0.30;0.30;;;22.50;63.80;;;;;;5035626;28;20418;-76
2023/07/17 09:56:59;;;;;;;0.40;0.40;;;22.50;63.70;;;;;;5033866;28;20036;-76
2023/07/17 09:59:24;;;;;;;0.38;0.38;;;22.50;63.60;;;;;;5046566;28;20042;-76
2023/07/17 10:01:51;;;;;;;0.50;0.50;;;22.50;63.60;;;;;;5044997;28;20044;-76
2023/07/17 10:04:21;;;;;;;0.47;0.47;;;22.50;63.90;;;;;;5058937;28;20030;-76
2023/07/17 10:06:46;;;;;;;0.57;0.57;;;22.50;64.00;;;;;;5048215;28;20116;-76
2023/07/17 10:09:13;;;;;;;0.73;0.73;;;22.50;64.00;;;;;;5049500;28;20128;-76
2023/07/17 10:11:38;;;;;;;0.50;0.50;;;22.50;64.00;;;;;;5058450;28;20502;-76
2023/07/17 10:14:04;;;;;;;0.60;0.60;;;22.50;63.90;;;;;;5054302;28;20041;-76
2023/07/17 10:16:29;;;;;;;0.40;0.40;;;22.50;63.70;;;;;;5044570;28;20470;-76
2023/07/17 10:18:55;;;;;;;0.38;0.38;;;22.50;63.40;;;;;;5035297;28;20047;-76
2023/07/17 10:21:21;;;;;;;0.30;0.30;;;22.50;63.40;;;;;;5032178;28;20518;-77
2023/07/17 10:23:48;;;;;;;0.40;0.40;;;22.50;63.40;;;;;;5017978;28;20038;-76
2023/07/17 10:26:16;;;;;;;0.40;0.40;;;22.60;63.50;;;;;;5037043;28;20049;-76
2023/07/17 10:28:43;;;;;;;0.40;0.40;;;22.60;63.50;;;;;;5036931;28;20063;-76
2023/07/17 10:31:19;;;;;;;0.50;0.50;;;22.60;63.50;;;;;;5031391;28;20033;-76
2023/07/17 10:33:58;;;;;;;0.47;0.47;;;22.60;63.50;;;;;;5034787;28;20108;-76
2023/07/17 10:36:42;;;;;;;0.43;0.43;;;22.60;63.40;;;;;;5027459;28;20597;-76
2023/07/17 10:39:15;;;;;;;0.50;0.50;;;22.60;63.40;;;;;;5033716;28;20068;-76
2023/07/17 10:41:41;;;;;;;0.32;0.32;;;22.60;63.40;;;;;;5034523;28;20037;-76
2023/07/17 10:44:08;;;;;;;0.38;0.38;;;22.60;63.40;;;;;;5051495;28;20049;-76
2023/07/17 10:46:35;;;;;;;0.30;0.30;;;22.60;63.30;;;;;;5036277;28;20041;-76
2023/07/17 10:49:08;;;;;;;0.52;0.52;;;22.70;63.20;;;;;;5032659;28;20120;-76
2023/07/17 10:51:33;;;;;;;0.55;0.47;;;22.70;63.10;;;;;;5026996;28;20045;-76
2023/07/17 10:53:59;;;;;;;0.60;0.60;;;22.70;63.10;;;;;;5040420;28;20063;-76
2023/07/17 10:56:25;;;;;;;0.47;0.47;;;22.70;63.10;;;;;;5012766;28;20098;-76
2023/07/17 10:58:50;;;;;;;0.40;0.40;;;22.70;63.30;;;;;;5037127;28;20155;-76
2023/07/17 11:01:16;;;;;;;0.45;0.45;;;22.60;63.20;;;;;;5051653;28;20415;-76
2023/07/17 11:03:48;;;;;;;0.60;0.60;;;22.70;63.20;;;;;;5031587;28;20103;-76
2023/07/17 11:06:17;;;;;;;0.55;0.50;;;22.60;63.20;;;;;;5037837;28;20403;-76
2023/07/17 11:08:47;;;;;;;0.30;0.30;;;22.60;63.30;;;;;;5029955;28;20037;-76
2023/07/17 11:11:12;;;;;;;0.50;0.50;;;22.60;63.40;;;;;;5031528;28;20140;-76
2023/07/17 11:13:38;;;;;;;0.50;0.50;;;22.70;63.40;;;;;;5055066;28;20132;-76
2023/07/17 11:16:10;;;;;;;0.60;0.60;;;22.70;63.40;;;;;;5029979;28;20050;-76
2023/07/17 11:18:45;;;;;;;0.52;0.52;;;22.70;63.30;;;;;;5034086;28;20049;-76
2023/07/17 11:21:11;;;;;;;0.60;0.60;;;22.60;63.30;;;;;;5033770;28;20530;-76
2023/07/17 11:23:53;;;;;;;0.40;0.40;;;22.70;63.30;;;;;;5034042;28;20045;-76
2023/07/17 11:26:29;;;;;;;0.30;0.30;;;22.70;63.30;;;;;;5030124;28;20048;-76
2023/07/17 11:28:58;;;;;;;0.50;0.50;;;22.70;63.30;;;;;;5038756;28;20498;-76
2023/07/17 11:31:28;;;;;;;0.40;0.40;;;22.70;63.10;;;;;;5029417;28;20053;-76
2023/07/17 11:33:53;;;;;;;0.50;0.50;;;22.70;63.00;;;;;;5033707;28;20048;-76
2023/07/17 11:36:19;;;;;;;0.50;0.50;;;22.70;63.10;;;;;;5031815;28;20041;-75
2023/07/17 11:38:44;;;;;;;0.60;0.60;;;22.70;63.00;;;;;;5032469;28;20040;-75
2023/07/17 11:41:10;;;;;;;0.77;0.77;;;22.80;63.00;;;;;;5035271;28;20384;-75
2023/07/17 11:43:36;;;;;;;0.85;0.50;;;22.70;63.00;;;;;;5038237;28;20053;-76
2023/07/17 11:46:06;;;;;;;0.50;0.50;;;22.80;63.00;;;;;;5035657;28;20158;-75
2023/07/17 11:48:32;;;;;;;0.63;0.63;;;22.70;62.90;;;;;;5036139;28;20072;-76
2023/07/17 11:50:58;;;;;;;0.50;0.50;;;22.70;63.00;;;;;;5041199;28;20052;-75
2023/07/17 11:53:24;;;;;;;0.40;0.40;;;22.70;63.00;;;;;;5051283;28;20049;-76
2023/07/17 11:55:49;;;;;;;0.50;0.50;;;22.70;63.10;;;;;;5038590;28;20085;-75
2023/07/17 11:58:19;;;;;;;0.55;0.55;;;22.70;63.20;;;;;;5035276;28;20033;-75
2023/07/17 12:00:46;;;;;;;0.43;0.43;;;22.70;63.20;;;;;;5034082;28;20029;-75
2023/07/17 12:03:12;;;;;;;0.70;0.70;;;22.70;63.30;;;;;;5028946;28;20507;-76
2023/07/17 12:05:38;;;;;;;0.60;0.60;;;22.70;63.30;;;;;;5030772;28;20434;-76
2023/07/17 12:08:04;;;;;;;0.47;0.47;;;22.70;63.20;;;;;;5033855;28;20030;-75
2023/07/17 12:10:29;;;;;;;0.50;0.50;;;22.70;63.30;;;;;;5035861;28;20056;-75
2023/07/17 12:12:55;;;;;;;0.40;0.40;;;22.70;63.20;;;;;;5034290;28;20176;-76
2023/07/17 12:15:22;;;;;;;0.93;0.45;;;22.70;63.30;;;;;;5034466;28;20399;-75
2023/07/17 12:17:48;;;;;;;0.50;0.50;;;22.70;63.30;;;;;;5035744;28;20040;-75
2023/07/17 12:20:15;;;;;;;0.43;0.43;;;22.70;63.20;;;;;;5039096;28;20045;-75
2023/07/17 12:22:41;;;;;;;0.60;0.60;;;22.70;63.30;;;;;;5040823;28;20041;-75
2023/07/17 12:25:07;;;;;;;0.40;0.40;;;22.70;63.30;;;;;;5036622;28;20033;-75
2023/07/17 12:27:33;;;;;;;0.40;0.40;;;22.70;63.20;;;;;;5038215;28;20055;-76
2023/07/17 12:29:59;;;;;;;0.40;0.40;;;22.80;63.20;;;;;;5031445;28;20041;-76
2023/07/17 12:32:24;;;;;;;0.43;0.43;;;22.80;63.10;;;;;;5035343;28;20125;-76
2023/07/17 12:34:50;;;;;;;0.40;0.40;;;22.80;63.00;;;;;;5035365;28;20091;-75
2023/07/17 12:37:15;;;;;;;0.50;0.50;;;22.80;63.10;;;;;;5038011;28;20055;-75
2023/07/17 12:39:41;;;;;;;0.35;0.35;;;22.80;63.00;;;;;;5034458;28;20053;-75
2023/07/17 12:42:07;;;;;;;0.40;0.40;;;22.80;63.20;;;;;;5037258;28;20448;-75